sensor_id;sensor_type;location;lat;lon;timestamp;pressure;altitude;pressure_sealevel;temperature;humidity
31183;BME280;17813;0.000;0.000;2023-04-05T00:00:10;78202.88;;;-142.58;69.79
31183;BME280;17813;0.000;0.000;2023-04-05T00:02:37;78213.06;;;-142.58;70.20
31183;BME280;17813;0.000;0.000;2023-04-05T00:05:06;78219.28;;;-142.58;70.83
31183;BME280;17813;0.000;0.000;2023-04-05T00:07:35;78219.28;;;-142.58;70.72
31183;BME280;17813;0.000;0.000;2023-04-05T00:10:02;78213.19;;;-142.58;70.39
31183;BME280;17813;0.000;0.000;2023-04-05T00:12:29;78219.28;;;-142.58;70.98
31183;BME280;17813;0.000;0.000;2023-04-05T00:14:56;78217.13;;;-142.58;70.60
31183;BME280;17813;0.000;0.000;2023-04-05T00:17:23;78237.47;;;-142.58;72.14
31183;BME280;17813;0.000;0.000;2023-04-05T00:19:53;78093.09;;;-142.58;72.82
31183;BME280;17813;0.000;0.000;2023-04-05T00:22:23;78268.00;;;-142.58;72.68
31183;BME280;17813;0.000;0.000;2023-04-05T00:24:51;78251.72;;;-142.58;73.35
31183;BME280;17813;0.000;0.000;2023-04-05T00:27:18;78245.63;;;-142.58;72.12
31183;BME280;17813;0.000;0.000;2023-04-05T00:29:44;78243.59;;;-142.58;71.99
31183;BME280;17813;0.000;0.000;2023-04-05T00:32:11;78243.59;;;-142.58;72.54
31183;BME280;17813;0.000;0.000;2023-04-05T00:34:39;78235.44;;;-142.58;72.36
31183;BME280;17813;0.000;0.000;2023-04-05T00:37:06;78243.59;;;-142.58;72.11
31183;BME280;17813;0.000;0.000;2023-04-05T00:39:33;78235.44;;;-142.58;72.31
31183;BME280;17813;0.000;0.000;2023-04-05T00:42:02;78231.38;;;-142.58;71.95
31183;BME280;17813;0.000;0.000;2023-04-05T00:44:30;78227.31;;;-142.58;71.82
31183;BME280;17813;0.000;0.000;2023-04-05T00:47:06;78204.91;;;-142.58;71.20
31183;BME280;17813;0.000;0.000;2023-04-05T00:49:34;78208.97;;;-142.58;70.95
31183;BME280;17813;0.000;0.000;2023-04-05T00:52:02;78205.03;;;-142.58;71.67
31183;BME280;17813;0.000;0.000;2023-04-05T00:54:33;78188.75;;;-142.58;71.37
31183;BME280;17813;0.000;0.000;2023-04-05T00:57:01;78198.81;;;-142.58;70.93
31183;BME280;17813;0.000;0.000;2023-04-05T00:59:28;78196.78;;;-142.58;71.49
31183;BME280;17813;0.000;0.000;2023-04-05T01:02:16;78196.78;;;-142.58;72.10
31183;BME280;17813;0.000;0.000;2023-04-05T01:04:48;78194.72;;;-142.58;72.54
31183;BME280;17813;0.000;0.000;2023-04-05T01:07:24;78194.72;;;-142.58;72.37
31183;BME280;17813;0.000;0.000;2023-04-05T01:10:00;78186.59;;;-142.58;71.73
31183;BME280;17813;0.000;0.000;2023-04-05T01:12:32;78180.47;;;-142.58;72.08
31183;BME280;17813;0.000;0.000;2023-04-05T01:15:00;78176.41;;;-142.58;71.11
31183;BME280;17813;0.000;0.000;2023-04-05T01:17:28;78164.19;;;-142.58;71.55
31183;BME280;17813;0.000;0.000;2023-04-05T01:20:05;78160.13;;;-142.58;71.95
31183;BME280;17813;0.000;0.000;2023-04-05T01:31:40;78156.19;;;-142.58;72.50
31183;BME280;17813;0.000;0.000;2023-04-05T01:34:25;78148.03;;;-142.58;72.33
31183;BME280;17813;0.000;0.000;2023-04-05T01:36:57;78143.84;;;-142.58;71.81
31183;BME280;17813;0.000;0.000;2023-04-05T01:39:27;100198.00;;;-142.58;72.09
31183;BME280;17813;0.000;0.000;2023-04-05T01:41:59;78145.88;;;-142.58;72.09
31183;BME280;17813;0.000;0.000;2023-04-05T01:44:27;78131.63;;;-142.58;72.00
31183;BME280;17813;0.000;0.000;2023-04-05T01:46:55;78123.50;;;-142.58;71.76
31183;BME280;17813;0.000;0.000;2023-04-05T01:49:22;78127.56;;;-142.58;71.25
31183;BME280;17813;0.000;0.000;2023-04-05T01:51:50;78113.31;;;-142.58;71.53
31183;BME280;17813;0.000;0.000;2023-04-05T01:54:16;78107.22;;;-142.58;71.76
31183;BME280;17813;0.000;0.000;2023-04-05T01:56:43;78105.19;;;-142.58;71.01
31183;BME280;17813;0.000;0.000;2023-04-05T01:59:10;78103.16;;;-142.58;71.71
31183;BME280;17813;0.000;0.000;2023-04-05T02:01:37;78113.31;;;-142.58;71.51
31183;BME280;17813;0.000;0.000;2023-04-05T02:04:04;78107.22;;;-142.58;71.13
31183;BME280;17813;0.000;0.000;2023-04-05T02:06:31;38498.44;;;-142.58;71.97
31183;BME280;17813;0.000;0.000;2023-04-05T02:08:58;78105.19;;;-142.58;71.91
31183;BME280;17813;0.000;0.000;2023-04-05T02:11:25;78089.03;;;-142.58;72.06
31183;BME280;17813;0.000;0.000;2023-04-05T02:13:52;78084.94;;;-142.58;71.86
31183;BME280;17813;0.000;0.000;2023-04-05T02:16:19;78070.56;;;-142.58;71.56
31183;BME280;17813;0.000;0.000;2023-04-05T02:18:46;78078.72;;;-142.58;70.40
31183;BME280;17813;0.000;0.000;2023-04-05T02:21:16;78078.84;;;-142.58;71.87
31183;BME280;17813;0.000;0.000;2023-04-05T02:23:43;78066.50;;;-142.58;71.40
31183;BME280;17813;0.000;0.000;2023-04-05T02:26:10;78074.78;;;-142.58;71.87
31183;BME280;17813;0.000;0.000;2023-04-05T02:28:37;78074.78;;;-142.58;71.88
31183;BME280;17813;0.000;0.000;2023-04-05T02:31:08;78078.84;;;-142.58;72.06
31183;BME280;17813;0.000;0.000;2023-04-05T02:33:37;78074.78;;;-142.58;71.83
31183;BME280;17813;0.000;0.000;2023-04-05T02:36:06;78070.56;;;-142.58;71.30
31183;BME280;17813;0.000;0.000;2023-04-05T02:38:34;78066.50;;;-142.58;71.99
31183;BME280;17813;0.000;0.000;2023-04-05T02:41:01;78066.50;;;-142.58;71.95
31183;BME280;17813;0.000;0.000;2023-04-05T02:43:29;78062.44;;;-142.58;71.45
31183;BME280;17813;0.000;0.000;2023-04-05T02:45:56;78066.63;;;-142.58;71.35
31183;BME280;17813;0.000;0.000;2023-04-05T02:48:22;78054.41;;;-142.58;71.56
31183;BME280;17813;0.000;0.000;2023-04-05T02:50:50;78054.41;;;-142.58;72.28
31183;BME280;17813;0.000;0.000;2023-04-05T02:53:18;38455.34;;;-142.58;71.62
31183;BME280;17813;0.000;0.000;2023-04-05T02:55:55;78058.50;;;-142.58;71.63
31183;BME280;17813;0.000;0.000;2023-04-05T02:58:23;78058.50;;;-142.58;71.71
31183;BME280;17813;0.000;0.000;2023-04-05T03:00:50;78062.44;;;-142.58;71.67
31183;BME280;17813;0.000;0.000;2023-04-05T03:03:20;78062.44;;;-142.58;72.51
31183;BME280;17813;0.000;0.000;2023-04-05T03:05:48;78054.28;;;-142.58;71.97
31183;BME280;17813;0.000;0.000;2023-04-05T03:08:22;78050.22;;;-142.58;71.81
31183;BME280;17813;0.000;0.000;2023-04-05T03:10:54;78042.22;;;-142.58;71.60
31183;BME280;17813;0.000;0.000;2023-04-05T03:13:21;78042.09;;;-142.58;71.83
31183;BME280;17813;0.000;0.000;2023-04-05T03:15:47;78042.09;;;-142.58;71.72
31183;BME280;17813;0.000;0.000;2023-04-05T03:18:14;78033.94;;;-142.58;71.16
31183;BME280;17813;0.000;0.000;2023-04-05T03:20:42;78031.91;;;-142.58;71.85
31183;BME280;17813;0.000;0.000;2023-04-05T03:23:11;78035.97;;;-142.58;71.19
31183;BME280;17813;0.000;0.000;2023-04-05T03:25:41;78040.03;;;-142.58;70.96
31183;BME280;17813;0.000;0.000;2023-04-05T03:28:08;78050.34;;;-142.58;72.17
31183;BME280;17813;0.000;0.000;2023-04-05T03:30:35;78050.34;;;-142.58;71.56
31183;BME280;17813;0.000;0.000;2023-04-05T03:33:02;78046.16;;;-142.58;71.58
31183;BME280;17813;0.000;0.000;2023-04-05T03:35:30;78046.28;;;-143.88;71.81
31183;BME280;17813;0.000;0.000;2023-04-05T03:37:57;78078.84;;;-142.58;71.30
31183;BME280;17813;0.000;0.000;2023-04-05T03:40:24;78050.22;;;-142.58;0.00
31183;BME280;17813;0.000;0.000;2023-04-05T03:42:51;78050.34;;;-142.58;71.54
31183;BME280;17813;0.000;0.000;2023-04-05T03:45:19;78056.47;;;-142.58;71.71
31183;BME280;17813;0.000;0.000;2023-04-05T03:47:46;78058.50;;;-142.58;72.04
31183;BME280;17813;0.000;0.000;2023-04-05T03:50:13;38120.78;;;-142.58;72.29
31183;BME280;17813;0.000;0.000;2023-04-05T03:52:40;78058.50;;;-142.58;72.30
31183;BME280;17813;0.000;0.000;2023-04-05T03:55:07;78058.50;;;-142.58;72.35
31183;BME280;17813;0.000;0.000;2023-04-05T03:57:36;78066.50;;;-142.58;72.52
31183;BME280;17813;0.000;0.000;2023-04-05T04:00:05;78074.78;;;-142.58;73.42
31183;BME280;17813;0.000;0.000;2023-04-05T04:02:46;78074.78;;;-142.58;72.89
31183;BME280;17813;0.000;0.000;2023-04-05T04:05:14;78089.03;;;-142.58;73.08
31183;BME280;17813;0.000;0.000;2023-04-05T04:07:42;78089.03;;;-142.58;73.32
31183;BME280;17813;0.000;0.000;2023-04-05T04:10:12;78080.88;;;-142.58;73.10
31183;BME280;17813;0.000;0.000;2023-04-05T04:12:39;78097.03;;;-142.58;72.58
31183;BME280;17813;0.000;0.000;2023-04-05T04:15:06;78087.00;;;-142.58;72.93
31183;BME280;17813;0.000;0.000;2023-04-05T04:17:35;78099.06;;;-142.58;73.17
31183;BME280;17813;0.000;0.000;2023-04-05T04:20:04;78101.09;;;-142.58;72.84
31183;BME280;17813;0.000;0.000;2023-04-05T04:22:37;78109.25;;;-142.58;73.08
31183;BME280;17813;0.000;0.000;2023-04-05T04:25:10;78117.38;;;-142.58;72.99
31183;BME280;17813;0.000;0.000;2023-04-05T04:27:40;78135.72;;;-142.58;73.44
31183;BME280;17813;0.000;0.000;2023-04-05T04:30:12;78131.63;;;-142.58;73.30
31183;BME280;17813;0.000;0.000;2023-04-05T04:32:42;78135.72;;;-142.58;72.84
31183;BME280;17813;0.000;0.000;2023-04-05T04:35:35;78139.78;;;-142.58;73.12
31183;BME280;17813;0.000;0.000;2023-04-05T04:38:05;78149.97;;;-142.58;73.35
31183;BME280;17813;0.000;0.000;2023-04-05T04:40:37;78156.19;;;-142.58;73.41
31183;BME280;17813;0.000;0.000;2023-04-05T04:43:10;78168.28;;;-142.58;73.86
31183;BME280;17813;0.000;0.000;2023-04-05T04:45:48;78162.16;;;-142.58;73.21
31183;BME280;17813;0.000;0.000;2023-04-05T04:48:16;78154.03;;;-142.58;73.53
31183;BME280;17813;0.000;0.000;2023-04-05T04:50:43;78152.00;;;-142.58;73.81
31183;BME280;17813;0.000;0.000;2023-04-05T04:53:11;78156.06;;;-142.58;73.54
31183;BME280;17813;0.000;0.000;2023-04-05T04:55:40;78156.06;;;-142.58;73.42
31183;BME280;17813;0.000;0.000;2023-04-05T04:58:10;78176.41;;;-142.58;74.23
31183;BME280;17813;0.000;0.000;2023-04-05T05:00:40;78168.28;;;-142.58;73.31
31183;BME280;17813;0.000;0.000;2023-04-05T05:03:07;78160.13;;;-142.58;73.05
31183;BME280;17813;0.000;0.000;2023-04-05T05:05:42;78164.19;;;-142.58;73.75
31183;BME280;17813;0.000;0.000;2023-04-05T05:08:09;78166.25;;;-142.58;74.09
31183;BME280;17813;0.000;0.000;2023-04-05T05:10:36;78156.19;;;-142.58;73.12
31183;BME280;17813;0.000;0.000;2023-04-05T05:13:03;78166.25;;;-142.58;73.62
31183;BME280;17813;0.000;0.000;2023-04-05T05:15:31;78164.19;;;-142.58;73.50
31183;BME280;17813;0.000;0.000;2023-04-05T05:17:58;78162.16;;;-142.58;74.33
31183;BME280;17813;0.000;0.000;2023-04-05T05:20:25;78164.19;;;-142.58;74.05
31183;BME280;17813;0.000;0.000;2023-04-05T05:22:56;78156.19;;;-142.58;73.90
31183;BME280;17813;0.000;0.000;2023-04-05T05:25:24;78149.97;;;-142.58;73.58
31183;BME280;17813;0.000;0.000;2023-04-05T05:27:52;78135.72;;;-142.58;74.09
31183;BME280;17813;0.000;0.000;2023-04-05T05:30:20;78093.09;;;-142.58;73.24
31183;BME280;17813;0.000;0.000;2023-04-05T05:32:47;78103.16;;;-142.58;72.12
31183;BME280;17813;0.000;0.000;2023-04-05T05:35:17;78099.06;;;-142.58;72.67
31183;BME280;17813;0.000;0.000;2023-04-05T05:37:44;78082.91;;;-142.58;72.11
31183;BME280;17813;0.000;0.000;2023-04-05T05:40:11;78087.00;;;-142.58;71.96
31183;BME280;17813;0.000;0.000;2023-04-05T05:42:39;78072.75;;;-142.58;71.91
31183;BME280;17813;0.000;0.000;2023-04-05T05:45:06;78066.50;;;-142.58;71.69
31183;BME280;17813;0.000;0.000;2023-04-05T05:47:33;78070.69;;;-142.58;71.42
31183;BME280;17813;0.000;0.000;2023-04-05T05:50:01;78070.56;;;-142.58;71.65
31183;BME280;17813;0.000;0.000;2023-04-05T05:52:29;78066.63;;;-142.58;72.37
31183;BME280;17813;0.000;0.000;2023-04-05T05:54:56;78064.47;;;-142.58;71.45
31183;BME280;17813;0.000;0.000;2023-04-05T05:57:23;78062.44;;;-142.58;71.37
31183;BME280;17813;0.000;0.000;2023-04-05T05:59:50;78054.41;;;-142.58;71.80
31183;BME280;17813;0.000;0.000;2023-04-05T06:02:17;78050.34;;;-142.58;71.59
31183;BME280;17813;0.000;0.000;2023-04-05T06:04:44;78040.03;;;-142.58;71.50
31183;BME280;17813;0.000;0.000;2023-04-05T06:07:11;77997.31;;;-142.58;70.95
31183;BME280;17813;0.000;0.000;2023-04-05T06:09:38;77877.22;;;-142.58;70.13
31183;BME280;17813;0.000;0.000;2023-04-05T06:12:04;77783.59;;;-142.58;68.17
31183;BME280;17813;0.000;0.000;2023-04-05T06:14:32;77781.56;;;-142.58;66.60
31183;BME280;17813;0.000;0.000;2023-04-05T06:16:59;100154.25;;;1.37;67.79
31183;BME280;17813;0.000;0.000;2023-04-05T06:19:27;77783.59;;;-142.58;67.79
31183;BME280;17813;0.000;0.000;2023-04-05T06:21:55;77633.00;;;-142.58;66.02
31183;BME280;17813;0.000;0.000;2023-04-05T06:24:22;77472.38;;;-142.58;63.33
31183;BME280;17813;0.000;0.000;2023-04-05T06:26:50;77415.25;;;-142.58;59.97
31183;BME280;17813;0.000;0.000;2023-04-05T06:29:18;77409.16;;;-142.58;59.81
31183;BME280;17813;0.000;0.000;2023-04-05T06:31:45;77350.16;;;-143.88;59.68
31183;BME280;17813;0.000;0.000;2023-04-05T06:34:13;77350.16;;;-143.88;56.90
31183;BME280;17813;0.000;0.000;2023-04-05T06:36:41;77390.84;;;-142.58;57.41
31183;BME280;17813;0.000;0.000;2023-04-05T06:39:08;100150.06;;;-142.58;58.59
31183;BME280;17813;0.000;0.000;2023-04-05T06:41:35;77423.41;;;-142.58;58.56
31183;BME280;17813;0.000;0.000;2023-04-05T06:44:03;77429.50;;;-142.58;59.66
31183;BME280;17813;0.000;0.000;2023-04-05T06:46:30;77425.44;;;-142.58;59.71
31183;BME280;17813;0.000;0.000;2023-04-05T06:48:58;77445.78;;;-142.58;59.80
31183;BME280;17813;0.000;0.000;2023-04-05T06:51:31;77419.34;;;-142.58;58.43
31183;BME280;17813;0.000;0.000;2023-04-05T06:53:59;77350.16;;;-143.88;57.69
31183;BME280;17813;0.000;0.000;2023-04-05T06:56:26;100134.25;;;5.91;55.36
31183;BME280;17813;0.000;0.000;2023-04-05T06:58:54;100125.00;;;7.05;52.21
31183;BME280;17813;0.000;0.000;2023-04-05T07:01:21;100118.81;;;7.52;50.07
31183;BME280;17813;0.000;0.000;2023-04-05T07:03:50;100110.09;;;8.37;48.99
31183;BME280;17813;0.000;0.000;2023-04-05T07:06:17;100106.59;;;9.90;47.43
31183;BME280;17813;0.000;0.000;2023-04-05T07:08:44;100115.63;;;10.39;44.99
31183;BME280;17813;0.000;0.000;2023-04-05T07:11:12;100109.44;;;10.57;42.44
31183;BME280;17813;0.000;0.000;2023-04-05T07:13:41;100097.91;;;11.56;42.88
31183;BME280;17813;0.000;0.000;2023-04-05T07:16:08;100106.31;;;11.64;40.39
31183;BME280;17813;0.000;0.000;2023-04-05T07:18:38;100095.81;;;12.97;40.67
31183;BME280;17813;0.000;0.000;2023-04-05T07:21:05;100092.31;;;14.07;39.42
31183;BME280;17813;0.000;0.000;2023-04-05T07:23:32;100091.88;;;14.40;37.85
31183;BME280;17813;0.000;0.000;2023-04-05T07:26:01;100096.84;;;14.59;36.78
31183;BME280;17813;0.000;0.000;2023-04-05T07:28:31;100086.50;;;14.54;36.77
31183;BME280;17813;0.000;0.000;2023-04-05T07:31:03;100088.19;;;14.15;36.68
31183;BME280;17813;0.000;0.000;2023-04-05T07:33:30;100090.25;;;14.64;36.67
31183;BME280;17813;0.000;0.000;2023-04-05T07:35:58;100081.59;;;14.99;35.88
31183;BME280;17813;0.000;0.000;2023-04-05T07:38:28;100088.53;;;14.24;35.04
31183;BME280;17813;0.000;0.000;2023-04-05T07:40:56;100099.34;;;13.54;36.57
31183;BME280;17813;0.000;0.000;2023-04-05T07:43:24;100099.28;;;13.41;36.98
31183;BME280;17813;0.000;0.000;2023-04-05T07:45:51;100093.00;;;13.14;38.01
31183;BME280;17813;0.000;0.000;2023-04-05T07:48:21;100094.06;;;12.53;37.88
31183;BME280;17813;0.000;0.000;2023-04-05T07:50:48;100088.34;;;12.45;38.13
31183;BME280;17813;0.000;0.000;2023-04-05T07:53:19;100100.81;;;12.29;38.10
31183;BME280;17813;0.000;0.000;2023-04-05T07:55:46;100086.84;;;12.55;37.60
31183;BME280;17813;0.000;0.000;2023-04-05T07:58:13;100093.69;;;13.32;37.24
31183;BME280;17813;0.000;0.000;2023-04-05T08:00:41;100086.19;;;13.92;36.00
31183;BME280;17813;0.000;0.000;2023-04-05T08:03:08;100084.88;;;14.12;34.84
31183;BME280;17813;0.000;0.000;2023-04-05T08:05:35;100086.22;;;14.32;35.57
31183;BME280;17813;0.000;0.000;2023-04-05T08:08:02;100085.97;;;14.87;34.94
31183;BME280;17813;0.000;0.000;2023-04-05T08:10:38;100089.88;;;15.32;33.00
31183;BME280;17813;0.000;0.000;2023-04-05T08:13:07;100077.97;;;15.74;32.57
31183;BME280;17813;0.000;0.000;2023-04-05T08:15:34;100068.63;;;15.80;33.65
31183;BME280;17813;0.000;0.000;2023-04-05T08:18:01;100070.25;;;16.18;32.80
31183;BME280;17813;0.000;0.000;2023-04-05T08:20:29;100067.13;;;16.24;32.29
31183;BME280;17813;0.000;0.000;2023-04-05T08:22:56;100067.88;;;16.72;31.50
31183;BME280;17813;0.000;0.000;2023-04-05T08:25:23;100058.53;;;17.11;32.05
31183;BME280;17813;0.000;0.000;2023-04-05T08:27:51;100052.94;;;17.91;31.01
31183;BME280;17813;0.000;0.000;2023-04-05T08:30:18;100053.38;;;18.39;30.41
31183;BME280;17813;0.000;0.000;2023-04-05T08:32:45;100061.38;;;18.71;28.73
31183;BME280;17813;0.000;0.000;2023-04-05T08:35:12;100049.66;;;19.03;28.44
31183;BME280;17813;0.000;0.000;2023-04-05T08:37:39;100052.63;;;19.00;26.46
31183;BME280;17813;0.000;0.000;2023-04-05T08:40:07;100048.84;;;18.81;25.10
31183;BME280;17813;0.000;0.000;2023-04-05T08:42:41;100051.63;;;19.31;25.46
31183;BME280;17813;0.000;0.000;2023-04-05T08:45:09;100053.78;;;18.76;23.39
31183;BME280;17813;0.000;0.000;2023-04-05T08:47:37;100048.84;;;18.81;25.43
31183;BME280;17813;0.000;0.000;2023-04-05T08:50:08;100058.56;;;19.34;25.08
31183;BME280;17813;0.000;0.000;2023-04-05T08:52:40;100035.78;;;20.07;24.52
31183;BME280;17813;0.000;0.000;2023-04-05T08:55:14;100039.31;;;20.17;22.77
31183;BME280;17813;0.000;0.000;2023-04-05T08:57:49;100043.69;;;19.89;21.36
31183;BME280;17813;0.000;0.000;2023-04-05T09:00:19;100045.72;;;18.76;20.83
31183;BME280;17813;0.000;0.000;2023-04-05T09:02:54;100041.16;;;19.38;21.33
31183;BME280;17813;0.000;0.000;2023-04-05T09:05:24;100036.22;;;20.41;22.02
31183;BME280;17813;0.000;0.000;2023-04-05T09:07:52;100034.66;;;21.41;23.51
31183;BME280;17813;0.000;0.000;2023-04-05T09:10:20;100036.91;;;22.70;22.31
31183;BME280;17813;0.000;0.000;2023-04-05T09:12:48;100036.22;;;23.54;19.84
31183;BME280;17813;0.000;0.000;2023-04-05T09:15:18;100018.69;;;23.83;20.19
31183;BME280;17813;0.000;0.000;2023-04-05T09:17:52;100033.78;;;23.43;19.50
31183;BME280;17813;0.000;0.000;2023-04-05T09:20:21;100034.31;;;23.47;17.57
31183;BME280;17813;0.000;0.000;2023-04-05T09:22:50;100029.41;;;23.16;18.82
31183;BME280;17813;0.000;0.000;2023-04-05T09:25:39;100027.59;;;21.58;19.09
31183;BME280;17813;0.000;0.000;2023-04-05T09:28:11;100024.16;;;21.38;19.94
31183;BME280;17813;0.000;0.000;2023-04-05T09:30:45;100026.84;;;21.83;19.95
31183;BME280;17813;0.000;0.000;2023-04-05T09:33:17;100018.88;;;22.79;20.23
31183;BME280;17813;0.000;0.000;2023-04-05T09:35:49;100016.34;;;23.03;18.55
31183;BME280;17813;0.000;0.000;2023-04-05T09:38:17;100019.47;;;22.03;18.92
31183;BME280;17813;0.000;0.000;2023-04-05T09:40:48;100025.28;;;22.78;18.26
31183;BME280;17813;0.000;0.000;2023-04-05T09:43:50;100020.69;;;21.73;16.54
31183;BME280;17813;0.000;0.000;2023-04-05T09:46:31;100029.97;;;21.06;16.98
31183;BME280;17813;0.000;0.000;2023-04-05T09:49:00;100022.81;;;21.25;20.94
31183;BME280;17813;0.000;0.000;2023-04-05T09:51:37;100021.38;;;21.75;17.66
31183;BME280;17813;0.000;0.000;2023-04-05T09:54:09;100016.66;;;21.32;16.50
31183;BME280;17813;0.000;0.000;2023-04-05T09:56:39;100030.94;;;20.49;18.90
31183;BME280;17813;0.000;0.000;2023-04-05T09:59:10;100020.13;;;20.68;19.78
31183;BME280;17813;0.000;0.000;2023-04-05T10:01:38;100013.09;;;21.04;17.66
31183;BME280;17813;0.000;0.000;2023-04-05T10:04:08;100010.13;;;21.35;20.00
31183;BME280;17813;0.000;0.000;2023-04-05T10:06:40;100018.31;;;21.43;17.88
31183;BME280;17813;0.000;0.000;2023-04-05T10:09:10;100016.63;;;21.42;17.88
31183;BME280;17813;0.000;0.000;2023-04-05T10:11:38;100012.75;;;21.90;18.16
31183;BME280;17813;0.000;0.000;2023-04-05T10:14:06;100008.56;;;22.31;18.23
31183;BME280;17813;0.000;0.000;2023-04-05T10:16:51;100004.41;;;22.19;18.92
31183;BME280;17813;0.000;0.000;2023-04-05T10:22:07;100009.22;;;23.02;18.16
31183;BME280;17813;0.000;0.000;2023-04-05T10:24:51;100007.59;;;22.84;18.42
31183;BME280;17813;0.000;0.000;2023-04-05T10:27:28;99999.47;;;23.52;19.99
31183;BME280;17813;0.000;0.000;2023-04-05T10:30:02;99987.25;;;24.30;18.15
31183;BME280;17813;0.000;0.000;2023-04-05T10:32:43;99985.31;;;24.80;19.01
31183;BME280;17813;0.000;0.000;2023-04-05T10:38:28;99998.41;;;23.02;17.91
31183;BME280;17813;0.000;0.000;2023-04-05T10:41:12;99999.78;;;20.93;19.04
31183;BME280;17813;0.000;0.000;2023-04-05T10:43:40;100001.19;;;20.41;20.20
31183;BME280;17813;0.000;0.000;2023-04-05T10:46:10;99998.00;;;19.39;20.12
31183;BME280;17813;0.000;0.000;2023-04-05T10:48:43;100007.44;;;18.21;21.43
31183;BME280;17813;0.000;0.000;2023-04-05T10:51:15;100005.38;;;17.39;22.48
31183;BME280;17813;0.000;0.000;2023-04-05T10:53:43;100014.94;;;17.09;22.94
31183;BME280;17813;0.000;0.000;2023-04-05T10:56:11;100014.94;;;16.87;23.51
31183;BME280;17813;0.000;0.000;2023-04-05T10:58:38;100011.22;;;16.43;23.54
31183;BME280;17813;0.000;0.000;2023-04-05T11:01:12;100013.56;;;16.13;23.69
31183;BME280;17813;0.000;0.000;2023-04-05T11:03:47;100009.91;;;15.79;24.55
31183;BME280;17813;0.000;0.000;2023-04-05T11:08:59;100016.63;;;15.60;24.72
31183;BME280;17813;0.000;0.000;2023-04-05T11:11:27;100016.16;;;15.54;24.61
31183;BME280;17813;0.000;0.000;2023-04-05T11:14:23;100005.19;;;15.09;24.48
31183;BME280;17813;0.000;0.000;2023-04-05T11:16:54;100006.25;;;15.06;25.02
31183;BME280;17813;0.000;0.000;2023-04-05T11:22:11;100002.25;;;14.50;25.93
31183;BME280;17813;0.000;0.000;2023-04-05T11:24:56;100001.03;;;14.29;25.94
31183;BME280;17813;0.000;0.000;2023-04-05T11:27:35;99992.38;;;14.25;26.24
31183;BME280;17813;0.000;0.000;2023-04-05T11:30:04;99994.19;;;14.25;25.56
31183;BME280;17813;0.000;0.000;2023-04-05T11:32:45;99992.91;;;14.18;26.96
31183;BME280;17813;0.000;0.000;2023-04-05T11:35:16;99987.03;;;14.12;26.60
31183;BME280;17813;0.000;0.000;2023-04-05T11:38:21;99979.75;;;13.89;27.30
31183;BME280;17813;0.000;0.000;2023-04-05T11:40:48;99982.88;;;14.08;26.73
31183;BME280;17813;0.000;0.000;2023-04-05T11:43:16;99978.19;;;14.12;26.43
31183;BME280;17813;0.000;0.000;2023-04-05T11:45:43;99984.28;;;14.14;26.95
31183;BME280;17813;0.000;0.000;2023-04-05T11:48:13;99980.53;;;14.04;26.29
31183;BME280;17813;0.000;0.000;2023-04-05T11:50:41;99973.22;;;13.80;24.88
31183;BME280;17813;0.000;0.000;2023-04-05T11:53:18;99977.91;;;13.09;27.20
31183;BME280;17813;0.000;0.000;2023-04-05T11:55:47;99978.59;;;12.84;25.54
31183;BME280;17813;0.000;0.000;2023-04-05T11:58:19;99973.19;;;12.71;25.59
31183;BME280;17813;0.000;0.000;2023-04-05T12:01:01;99976.59;;;12.31;25.64
31183;BME280;17813;0.000;0.000;2023-04-05T12:03:30;99977.16;;;11.77;25.83
31183;BME280;17813;0.000;0.000;2023-04-05T12:06:00;99978.28;;;11.57;26.70
31183;BME280;17813;0.000;0.000;2023-04-05T12:08:41;99967.09;;;11.37;28.05
31183;BME280;17813;0.000;0.000;2023-04-05T12:11:16;99970.03;;;11.62;26.10
31183;BME280;17813;0.000;0.000;2023-04-05T12:13:54;99972.03;;;11.58;26.60
31183;BME280;17813;0.000;0.000;2023-04-05T12:16:21;99974.53;;;11.76;27.70
31183;BME280;17813;0.000;0.000;2023-04-05T12:18:59;99974.97;;;11.84;27.40
31183;BME280;17813;0.000;0.000;2023-04-05T12:21:27;99973.34;;;12.11;28.09
31183;BME280;17813;0.000;0.000;2023-04-05T12:23:54;99970.91;;;12.37;29.48
31183;BME280;17813;0.000;0.000;2023-04-05T12:26:22;99961.78;;;12.69;29.50
31183;BME280;17813;0.000;0.000;2023-04-05T12:28:54;99960.81;;;12.28;27.67
31183;BME280;17813;0.000;0.000;2023-04-05T12:31:41;99960.72;;;12.29;29.55
31183;BME280;17813;0.000;0.000;2023-04-05T12:34:10;99957.50;;;12.38;29.94
31183;BME280;17813;0.000;0.000;2023-04-05T12:36:37;99952.84;;;12.70;28.81
31183;BME280;17813;0.000;0.000;2023-04-05T12:39:09;99944.44;;;12.91;28.29
31183;BME280;17813;0.000;0.000;2023-04-05T12:41:38;99950.47;;;12.66;27.24
31183;BME280;17813;0.000;0.000;2023-04-05T12:44:14;99951.03;;;12.56;29.04
31183;BME280;17813;0.000;0.000;2023-04-05T12:46:43;99947.63;;;12.69;29.33
31183;BME280;17813;0.000;0.000;2023-04-05T12:49:11;99937.97;;;12.95;29.43
31183;BME280;17813;0.000;0.000;2023-04-05T12:51:42;99938.38;;;13.03;29.02
31183;BME280;17813;0.000;0.000;2023-04-05T12:54:23;99936.66;;;12.87;29.17
31183;BME280;17813;0.000;0.000;2023-04-05T12:56:50;99941.97;;;12.87;28.81
31183;BME280;17813;0.000;0.000;2023-04-05T12:59:29;99940.19;;;12.88;29.07
31183;BME280;17813;0.000;0.000;2023-04-05T13:01:56;99942.97;;;12.72;29.41
31183;BME280;17813;0.000;0.000;2023-04-05T13:04:26;99941.81;;;12.62;29.41
31183;BME280;17813;0.000;0.000;2023-04-05T13:06:52;99939.91;;;12.78;29.36
31183;BME280;17813;0.000;0.000;2023-04-05T13:09:20;99935.50;;;12.92;29.51
31183;BME280;17813;0.000;0.000;2023-04-05T13:11:47;99936.66;;;12.87;29.47
31183;BME280;17813;0.000;0.000;2023-04-05T13:14:14;99930.38;;;13.03;29.05
31183;BME280;17813;0.000;0.000;2023-04-05T13:16:41;99917.81;;;13.05;29.68
31183;BME280;17813;0.000;0.000;2023-04-05T13:19:09;99925.81;;;12.91;28.10
31183;BME280;17813;0.000;0.000;2023-04-05T13:21:42;99922.88;;;12.81;28.82
31183;BME280;17813;0.000;0.000;2023-04-05T13:24:11;99918.94;;;12.60;27.78
31183;BME280;17813;0.000;0.000;2023-04-05T13:26:39;99915.31;;;12.46;28.55
31183;BME280;17813;0.000;0.000;2023-04-05T13:29:06;99913.78;;;12.71;28.11
31183;BME280;17813;0.000;0.000;2023-04-05T13:31:34;99909.03;;;12.76;29.12